Time;durP1;ratioP1;P1;durP2;ratioP2;P2;SDS_P1;SDS_P2;PMS_P1;PMS_P2;Temp;Humidity;BMP_temperature;BMP_pressure;BME280_temperature;BME280_humidity;BME280_pressure;Samples;Min_cycle;Max_cycle;Signal;HPM_P1;HPM_P2
2023/05/19 00:01:46;;;;;;;3.13;1.90;;;11.20;99.90;;;;;;5075524;28;20510;-68
2023/05/19 00:04:15;;;;;;;5.50;2.40;;;11.10;99.90;;;;;;5075789;28;20494;-68
2023/05/19 00:06:43;;;;;;;6.40;2.40;;;11.10;99.90;;;;;;5075719;28;20562;-68
2023/05/19 00:09:11;;;;;;;5.97;2.53;;;11.10;99.90;;;;;;5075868;28;20488;-68
2023/05/19 00:11:40;;;;;;;6.30;2.60;;;11.00;99.90;;;;;;5075823;28;20454;-68
2023/05/19 00:14:10;;;;;;;8.07;2.50;;;11.00;99.90;;;;;;5075253;28;20546;-68
2023/05/19 00:16:38;;;;;;;7.63;2.47;;;11.00;99.90;;;;;;5075604;28;20458;-68
2023/05/19 00:19:08;;;;;;;6.63;2.30;;;10.90;99.90;;;;;;5075443;28;20455;-67
2023/05/19 00:21:37;;;;;;;7.67;2.97;;;10.90;99.90;;;;;;5075533;28;20511;-67
2023/05/19 00:24:05;;;;;;;5.70;2.13;;;10.90;99.90;;;;;;5075476;28;20462;-68
2023/05/19 00:26:32;;;;;;;4.90;2.60;;;10.80;99.90;;;;;;5074509;28;20549;-67
2023/05/19 00:28:59;;;;;;;4.80;2.50;;;10.80;99.90;;;;;;5075402;28;20485;-68
2023/05/19 00:31:27;;;;;;;6.47;2.03;;;10.70;99.90;;;;;;5075178;28;20793;-68
2023/05/19 00:33:54;;;;;;;5.77;3.63;;;10.70;99.90;;;;;;5074994;28;20827;-68
2023/05/19 00:36:20;;;;;;;4.13;2.13;;;10.60;99.90;;;;;;5075341;28;20830;-68
2023/05/19 00:38:47;;;;;;;3.00;1.90;;;10.60;99.90;;;;;;5074919;28;20492;-67
2023/05/19 00:41:14;;;;;;;4.13;2.10;;;10.60;99.90;;;;;;5075563;28;20454;-67
2023/05/19 00:43:41;;;;;;;4.87;2.40;;;10.60;99.90;;;;;;5075222;28;20986;-68
2023/05/19 00:46:09;;;;;;;4.80;2.20;;;10.50;99.90;;;;;;5074893;28;20464;-68
2023/05/19 00:48:38;;;;;;;5.73;2.83;;;10.50;99.90;;;;;;5074873;28;20454;-68
2023/05/19 00:51:05;;;;;;;4.30;2.17;;;10.50;99.90;;;;;;5074562;28;20554;-68
2023/05/19 00:53:33;;;;;;;4.83;2.70;;;10.40;99.90;;;;;;5074563;28;20935;-68
2023/05/19 00:56:00;;;;;;;5.73;2.60;;;10.40;99.90;;;;;;5074619;28;20464;-68
2023/05/19 00:58:29;;;;;;;4.97;2.73;;;10.40;99.90;;;;;;5074533;28;20970;-68
2023/05/19 01:01:02;;;;;;;6.00;2.20;;;10.30;99.90;;;;;;5074420;28;20454;-67
2023/05/19 01:03:30;;;;;;;3.90;2.50;;;10.30;99.90;;;;;;5074660;28;20438;-67
2023/05/19 01:06:03;;;;;;;6.67;2.10;;;10.30;99.90;;;;;;5074621;28;20462;-67
2023/05/19 01:08:31;;;;;;;6.10;2.17;;;10.30;99.90;;;;;;5074224;28;20832;-67
2023/05/19 01:10:58;;;;;;;3.27;2.10;;;10.30;99.90;;;;;;5074466;28;20450;-68
2023/05/19 01:13:25;;;;;;;3.10;2.10;;;10.30;99.90;;;;;;5074138;28;20450;-68
2023/05/19 01:16:00;;;;;;;5.53;2.13;;;10.20;99.90;;;;;;5074199;28;20868;-68
2023/05/19 01:18:38;;;;;;;4.47;2.40;;;10.20;99.90;;;;;;5074462;28;20446;-68
2023/05/19 01:21:25;;;;;;;4.00;2.20;;;10.20;99.90;;;;;;5074356;28;20488;-68
2023/05/19 01:24:04;;;;;;;4.53;2.20;;;10.20;99.90;;;;;;5074061;28;20445;-68
2023/05/19 01:26:52;;;;;;;4.70;2.77;;;10.10;99.90;;;;;;5074561;28;20639;-67
2023/05/19 01:29:34;;;;;;;3.00;1.77;;;10.10;99.90;;;;;;5074350;28;20462;-67
2023/05/19 01:32:06;;;;;;;5.10;2.50;;;10.10;99.90;;;;;;5074321;28;20442;-67
2023/05/19 01:34:38;;;;;;;4.70;2.30;;;10.00;99.90;;;;;;5073976;28;20534;-67
2023/05/19 01:37:05;;;;;;;4.00;2.40;;;10.00;99.90;;;;;;5074499;28;20521;-68
2023/05/19 01:39:33;;;;;;;3.07;1.93;;;10.00;99.90;;;;;;5073681;28;20470;-68
2023/05/19 01:42:01;;;;;;;3.10;2.27;;;10.00;99.90;;;;;;5074342;28;20782;-66
2023/05/19 01:44:29;;;;;;;3.70;2.60;;;10.00;99.90;;;;;;5074013;28;20461;-66
2023/05/19 01:46:56;;;;;;;6.03;2.83;;;10.00;99.90;;;;;;5074240;28;20464;-67
2023/05/19 01:49:24;;;;;;;4.73;2.70;;;10.00;99.90;;;;;;5074264;28;20482;-68
2023/05/19 01:51:52;;;;;;;6.07;2.63;;;9.90;99.90;;;;;;5074137;28;20458;-68
2023/05/19 01:54:19;;;;;;;4.37;2.10;;;9.90;99.90;;;;;;5074261;28;20910;-68
2023/05/19 01:56:52;;;;;;;6.77;2.53;;;9.90;99.90;;;;;;5074239;28;20464;-68
2023/05/19 01:59:30;;;;;;;8.33;2.10;;;9.80;99.90;;;;;;5074433;28;20765;-68
2023/05/19 02:02:00;;;;;;;2.93;2.30;;;9.80;99.90;;;;;;5074034;28;20462;-68
2023/05/19 02:04:43;;;;;;;8.60;2.50;;;9.80;99.90;;;;;;5073931;28;20933;-66
2023/05/19 02:07:15;;;;;;;6.93;2.47;;;9.70;99.90;;;;;;5074169;28;20538;-68
2023/05/19 02:09:51;;;;;;;3.97;2.50;;;9.70;99.90;;;;;;5073597;28;20950;-68
2023/05/19 02:12:22;;;;;;;5.43;2.27;;;9.70;99.90;;;;;;5074188;28;20533;-68
2023/05/19 02:14:54;;;;;;;6.40;2.07;;;9.60;99.90;;;;;;5073996;28;20448;-67
2023/05/19 02:17:27;;;;;;;6.40;2.70;;;9.60;99.90;;;;;;5073851;28;20443;-68
2023/05/19 02:19:57;;;;;;;8.27;2.10;;;9.60;99.90;;;;;;5074146;28;20525;-68
2023/05/19 02:22:23;;;;;;;6.47;2.83;;;9.60;99.90;;;;;;5073715;28;20454;-68
2023/05/19 02:24:50;;;;;;;6.93;2.90;;;9.60;99.90;;;;;;5073881;28;20898;-68
2023/05/19 02:27:17;;;;;;;4.43;3.10;;;9.50;99.90;;;;;;5074052;28;20520;-67
2023/05/19 02:29:44;;;;;;;4.37;2.80;;;9.50;99.90;;;;;;5073503;28;20996;-68
2023/05/19 02:32:13;;;;;;;5.27;2.23;;;9.50;99.90;;;;;;5073876;28;20454;-68
2023/05/19 02:34:41;;;;;;;6.83;2.73;;;9.50;99.90;;;;;;5073744;28;20484;-68
2023/05/19 02:37:09;;;;;;;5.80;2.53;;;9.50;99.90;;;;;;5073860;28;20457;-67
2023/05/19 02:39:35;;;;;;;4.40;2.50;;;9.50;99.90;;;;;;5073557;28;20523;-67
2023/05/19 02:42:02;;;;;;;3.93;2.80;;;9.50;99.90;;;;;;5073732;28;20903;-68
2023/05/19 02:44:29;;;;;;;3.70;2.37;;;9.50;99.90;;;;;;5073392;28;20498;-68
2023/05/19 02:46:56;;;;;;;5.00;2.63;;;9.40;99.90;;;;;;5073891;28;20454;-68
2023/05/19 02:49:23;;;;;;;4.97;2.53;;;9.50;99.90;;;;;;5073538;28;20474;-67
2023/05/19 02:51:50;;;;;;;6.50;3.10;;;9.50;99.90;;;;;;5076825;28;20544;-68
2023/05/19 02:54:18;;;;;;;4.07;2.63;;;9.50;99.90;;;;;;5076998;28;20478;-68
2023/05/19 02:56:45;;;;;;;3.87;2.67;;;9.50;99.90;;;;;;5077258;28;20465;-67
2023/05/19 02:59:12;;;;;;;3.03;2.30;;;9.50;99.90;;;;;;5076995;28;20458;-67
2023/05/19 03:01:39;;;;;;;5.83;2.97;;;9.50;99.90;;;;;;5076561;28;20929;-67
2023/05/19 03:04:06;;;;;;;4.63;2.70;;;9.50;99.90;;;;;;5076934;28;20918;-67
2023/05/19 03:06:33;;;;;;;3.00;1.90;;;9.50;99.90;;;;;;5076702;28;20461;-68
2023/05/19 03:08:59;;;;;;;6.10;2.77;;;9.50;99.90;;;;;;5076984;28;20481;-68
2023/05/19 03:11:28;;;;;;;3.83;2.90;;;9.50;99.90;;;;;;5076558;28;20974;-68
2023/05/19 03:13:55;;;;;;;7.43;2.73;;;9.50;99.90;;;;;;5077120;28;20485;-67
2023/05/19 03:16:22;;;;;;;3.67;2.70;;;9.50;99.90;;;;;;5077032;28;20742;-67
2023/05/19 03:18:48;;;;;;;5.70;2.47;;;9.50;99.90;;;;;;5076318;28;20565;-67
2023/05/19 03:21:15;;;;;;;3.90;2.20;;;9.50;99.90;;;;;;5076650;28;20450;-67
2023/05/19 03:23:42;;;;;;;5.57;2.50;;;9.50;99.90;;;;;;5076198;28;20477;-68
2023/05/19 03:26:09;;;;;;;3.77;2.37;;;9.50;99.90;;;;;;5076375;28;20454;-68
2023/05/19 03:28:37;;;;;;;4.77;2.57;;;9.50;99.90;;;;;;5076310;28;20514;-67
2023/05/19 03:31:04;;;;;;;6.10;2.60;;;9.50;99.90;;;;;;5076315;28;20478;-67
2023/05/19 03:33:31;;;;;;;3.63;2.37;;;9.50;99.90;;;;;;5076206;28;20466;-67
2023/05/19 03:35:58;;;;;;;8.43;2.63;;;9.50;99.90;;;;;;5075966;28;20933;-67
2023/05/19 03:38:25;;;;;;;3.43;2.60;;;9.50;99.90;;;;;;5076173;28;20481;-67
2023/05/19 03:40:52;;;;;;;6.27;2.17;;;9.40;99.90;;;;;;5076907;28;20846;-67
2023/05/19 03:43:19;;;;;;;5.87;2.80;;;9.40;99.90;;;;;;5075779;28;20454;-67
2023/05/19 03:45:47;;;;;;;5.50;2.30;;;9.40;99.90;;;;;;5076135;28;20525;-67
2023/05/19 03:48:14;;;;;;;5.87;2.70;;;9.40;99.90;;;;;;5076145;28;20454;-67
2023/05/19 03:50:43;;;;;;;4.80;2.37;;;9.50;99.90;;;;;;5075980;28;20478;-66
2023/05/19 03:53:10;;;;;;;5.40;2.77;;;9.50;99.90;;;;;;5075712;28;20454;-67
2023/05/19 03:55:37;;;;;;;5.10;3.07;;;9.40;99.90;;;;;;5075566;28;20937;-67
2023/05/19 03:58:03;;;;;;;4.43;2.07;;;9.50;99.90;;;;;;5076033;28;20484;-67
2023/05/19 04:00:30;;;;;;;5.40;2.53;;;9.50;99.90;;;;;;5075934;28;20537;-67
2023/05/19 04:02:59;;;;;;;5.33;2.20;;;9.50;99.90;;;;;;5075463;28;20458;-67
2023/05/19 04:05:26;;;;;;;5.33;2.43;;;9.50;99.90;;;;;;5075676;28;20457;-67
2023/05/19 04:07:53;;;;;;;8.40;2.30;;;9.50;99.90;;;;;;5075809;28;20458;-67
2023/05/19 04:10:21;;;;;;;7.87;3.73;;;9.60;99.90;;;;;;5076082;28;20589;-67
2023/05/19 04:12:48;;;;;;;5.07;3.67;;;9.60;99.90;;;;;;5075830;28;20493;-67
2023/05/19 04:15:15;;;;;;;2.83;2.23;;;9.60;99.90;;;;;;5075900;28;20496;-67
2023/05/19 04:17:42;;;;;;;11.73;2.43;;;9.60;99.90;;;;;;5075869;28;20562;-67
2023/05/19 04:20:11;;;;;;;7.27;2.93;;;9.60;99.90;;;;;;5075579;28;20533;-67
2023/05/19 04:22:38;;;;;;;5.70;2.90;;;9.60;99.90;;;;;;5075555;28;20486;-67
2023/05/19 04:25:06;;;;;;;5.83;2.20;;;9.70;99.90;;;;;;5075370;28;20462;-67
2023/05/19 04:27:35;;;;;;;6.27;2.77;;;9.70;99.90;;;;;;5075431;28;20455;-67
2023/05/19 04:30:02;;;;;;;4.27;2.10;;;9.70;99.90;;;;;;5075355;28;20474;-67
2023/05/19 04:32:29;;;;;;;4.20;3.00;;;9.80;99.90;;;;;;5075310;28;20488;-67
2023/05/19 04:34:57;;;;;;;4.40;3.27;;;9.80;99.90;;;;;;5075028;28;20545;-67
2023/05/19 04:37:26;;;;;;;3.90;2.30;;;9.80;99.90;;;;;;5075311;28;20926;-67
2023/05/19 04:39:53;;;;;;;6.03;3.00;;;9.90;99.90;;;;;;5074641;28;20557;-67
2023/05/19 04:42:20;;;;;;;4.53;2.60;;;9.90;99.90;;;;;;5074911;28;20541;-67
2023/05/19 04:44:48;;;;;;;3.93;2.40;;;9.90;99.90;;;;;;5075171;28;20549;-66
2023/05/19 04:47:14;;;;;;;3.20;2.20;;;10.00;99.90;;;;;;5075163;28;20465;-67
2023/05/19 04:49:41;;;;;;;5.33;2.60;;;10.00;99.90;;;;;;5074961;28;20464;-66
2023/05/19 04:52:10;;;;;;;3.10;2.23;;;10.00;99.90;;;;;;5075262;28;20857;-67
2023/05/19 04:54:40;;;;;;;4.90;2.90;;;10.10;99.90;;;;;;5074944;28;20461;-67
2023/05/19 04:57:09;;;;;;;3.40;2.57;;;10.10;99.90;;;;;;5074626;28;20454;-67
2023/05/19 04:59:36;;;;;;;7.20;2.67;;;10.20;99.90;;;;;;5074348;28;20469;-67
2023/05/19 05:02:03;;;;;;;7.50;3.23;;;10.20;99.90;;;;;;5074273;28;20456;-67
2023/05/19 05:04:30;;;;;;;5.97;3.07;;;10.20;99.90;;;;;;5074670;28;20918;-68
2023/05/19 05:06:56;;;;;;;4.13;2.93;;;10.20;99.90;;;;;;5074644;28;20454;-68
2023/05/19 05:09:23;;;;;;;3.93;2.60;;;10.30;99.90;;;;;;5074355;28;20458;-68
2023/05/19 05:11:52;;;;;;;4.37;2.50;;;10.30;99.90;;;;;;5074100;28;20509;-68
2023/05/19 05:14:20;;;;;;;4.00;2.90;;;10.40;99.90;;;;;;5074185;28;20489;-68
2023/05/19 05:16:47;;;;;;;3.83;2.20;;;10.40;99.90;;;;;;5074712;28;20566;-68
2023/05/19 05:19:14;;;;;;;8.30;2.60;;;10.40;99.90;;;;;;5074602;28;20460;-68
2023/05/19 05:21:42;;;;;;;4.40;2.97;;;10.50;99.90;;;;;;5074316;28;20496;-68
2023/05/19 05:24:10;;;;;;;3.30;2.90;;;10.50;99.90;;;;;;5074142;28;20465;-68
2023/05/19 05:26:38;;;;;;;5.87;2.87;;;10.60;99.90;;;;;;5074328;28;20451;-67
2023/05/19 05:29:06;;;;;;;3.70;2.40;;;10.60;99.90;;;;;;5074205;28;20462;-68
2023/05/19 05:31:33;;;;;;;6.13;2.70;;;10.70;99.90;;;;;;5074440;28;20474;-68
2023/05/19 05:34:00;;;;;;;5.47;2.70;;;10.70;99.90;;;;;;5074187;28;20541;-68
2023/05/19 05:36:26;;;;;;;5.53;3.20;;;10.80;99.90;;;;;;5074654;28;20557;-68
2023/05/19 05:38:53;;;;;;;5.23;2.83;;;10.80;99.90;;;;;;5074010;28;20489;-68
2023/05/19 05:41:20;;;;;;;3.30;2.47;;;10.80;99.90;;;;;;5073948;28;20545;-68
2023/05/19 05:43:47;;;;;;;4.53;2.57;;;10.90;99.90;;;;;;5073737;28;20550;-68
2023/05/19 05:46:16;;;;;;;5.67;3.33;;;11.00;99.90;;;;;;5074613;28;20482;-68
2023/05/19 05:48:44;;;;;;;8.93;3.37;;;11.10;99.90;;;;;;5074525;28;20494;-68
2023/05/19 05:51:11;;;;;;;4.47;2.80;;;11.10;99.90;;;;;;5074149;28;20505;-67
2023/05/19 05:53:42;;;;;;;5.43;3.00;;;11.30;99.90;;;;;;5074263;28;20454;-68
2023/05/19 05:56:11;;;;;;;9.13;3.20;;;11.40;99.90;;;;;;5074080;28;20480;-68
2023/05/19 05:58:39;;;;;;;6.43;2.90;;;11.50;99.90;;;;;;5074141;28;20561;-68
2023/05/19 06:01:09;;;;;;;9.13;2.97;;;11.60;99.90;;;;;;5074216;28;20482;-68
2023/05/19 06:03:38;;;;;;;8.10;2.77;;;11.70;99.90;;;;;;5074163;28;20458;-68
2023/05/19 06:06:05;;;;;;;2.83;2.63;;;11.70;99.90;;;;;;5073802;28;20464;-67
2023/05/19 06:08:32;;;;;;;7.63;2.77;;;11.80;99.90;;;;;;5073934;28;20454;-68
2023/05/19 06:10:59;;;;;;;5.60;3.80;;;11.90;99.90;;;;;;5073563;28;20567;-68
2023/05/19 06:13:26;;;;;;;5.77;3.87;;;12.00;99.90;;;;;;5073802;28;20470;-68
2023/05/19 06:15:53;;;;;;;4.90;4.37;;;12.00;99.90;;;;;;5074096;28;20528;-68
2023/05/19 06:18:20;;;;;;;4.93;3.73;;;12.10;99.90;;;;;;5074185;28;20458;-67
2023/05/19 06:20:48;;;;;;;14.27;3.63;;;12.10;99.90;;;;;;5074157;28;20852;-68
2023/05/19 06:23:15;;;;;;;5.53;2.80;;;12.20;99.90;;;;;;5073808;28;20454;-68
2023/05/19 06:25:42;;;;;;;3.80;3.23;;;12.20;99.90;;;;;;5075662;28;20545;-67
2023/05/19 06:28:08;;;;;;;10.70;3.27;;;12.30;99.90;;;;;;5078095;28;20867;-68
2023/05/19 06:30:36;;;;;;;7.90;2.63;;;12.40;99.90;;;;;;5077513;28;20572;-68
2023/05/19 06:33:03;;;;;;;8.20;2.60;;;12.50;99.90;;;;;;5077836;28;20458;-68
2023/05/19 06:35:30;;;;;;;4.70;2.70;;;12.50;99.90;;;;;;5077596;28;20458;-68
2023/05/19 06:37:58;;;;;;;4.87;3.07;;;12.60;99.90;;;;;;5077166;28;20458;-68
2023/05/19 06:40:25;;;;;;;5.50;2.50;;;12.60;99.90;;;;;;5077524;28;20449;-65
2023/05/19 06:42:52;;;;;;;5.43;2.77;;;12.70;99.90;;;;;;5077748;28;20469;-67
2023/05/19 06:45:21;;;;;;;4.47;2.43;;;12.70;99.90;;;;;;5077383;28;20576;-67
2023/05/19 06:47:48;;;;;;;5.10;2.70;;;12.70;99.90;;;;;;5077456;28;20454;-68
2023/05/19 06:50:15;;;;;;;3.40;2.37;;;12.80;99.90;;;;;;5077554;28;20512;-68
2023/05/19 06:52:43;;;;;;;3.63;3.20;;;12.80;99.90;;;;;;5077742;28;20538;-68
2023/05/19 06:55:11;;;;;;;7.97;3.30;;;12.90;99.90;;;;;;5077400;28;20893;-68
2023/05/19 06:57:38;;;;;;;5.43;2.60;;;13.00;99.90;;;;;;5076905;28;20780;-68
2023/05/19 07:00:08;;;;;;;3.93;2.80;;;13.10;99.90;;;;;;5076740;28;20624;-68
2023/05/19 07:02:35;;;;;;;4.77;3.30;;;13.10;99.90;;;;;;5076845;28;20465;-67
2023/05/19 07:05:02;;;;;;;4.10;2.70;;;13.10;99.90;;;;;;5076766;28;20949;-67
2023/05/19 07:07:28;;;;;;;5.80;3.13;;;13.10;99.90;;;;;;5076267;28;20519;-67
2023/05/19 07:09:55;;;;;;;3.50;3.17;;;13.20;99.90;;;;;;5076849;28;20455;-67
2023/05/19 07:12:25;;;;;;;5.13;2.60;;;13.30;99.90;;;;;;5076875;28;20558;-68
2023/05/19 07:14:52;;;;;;;4.27;2.93;;;13.30;99.90;;;;;;5077031;28;20550;-69
2023/05/19 07:17:19;;;;;;;8.20;2.63;;;13.40;99.90;;;;;;5076355;28;20466;-68
2023/05/19 07:19:46;;;;;;;4.83;2.40;;;13.50;99.90;;;;;;5076765;28;20842;-68
2023/05/19 07:22:13;;;;;;;4.80;2.20;;;13.50;99.90;;;;;;5076473;28;20934;-67
2023/05/19 07:24:40;;;;;;;3.60;2.90;;;13.50;99.90;;;;;;5076615;28;20458;-67
2023/05/19 07:27:07;;;;;;;4.87;2.87;;;13.60;99.90;;;;;;5076701;28;20454;-68
2023/05/19 07:29:37;;;;;;;3.70;3.07;;;13.60;99.90;;;;;;5076616;28;20549;-68
2023/05/19 07:32:04;;;;;;;4.10;2.80;;;13.70;99.90;;;;;;5076028;28;20489;-67
2023/05/19 07:34:31;;;;;;;4.87;2.70;;;13.90;99.90;;;;;;5076511;28;20927;-68
2023/05/19 07:36:58;;;;;;;2.83;2.27;;;14.10;99.90;;;;;;5075896;28;20454;-67
2023/05/19 07:39:28;;;;;;;2.50;2.30;;;14.20;99.90;;;;;;5076413;28;20486;-68
2023/05/19 07:41:55;;;;;;;2.73;2.27;;;14.40;99.90;;;;;;5076487;28;20457;-68
2023/05/19 07:44:22;;;;;;;3.67;2.50;;;14.40;99.90;;;;;;5076309;28;20810;-68
2023/05/19 07:46:50;;;;;;;5.43;2.80;;;14.60;99.90;;;;;;5076333;28;20910;-68
2023/05/19 07:49:17;;;;;;;7.23;3.10;;;14.70;99.90;;;;;;5076060;28;20454;-68
2023/05/19 07:51:43;;;;;;;4.97;3.57;;;14.80;99.90;;;;;;5076238;28;20482;-67
2023/05/19 07:54:10;;;;;;;4.90;2.73;;;14.90;99.90;;;;;;5076206;28;20458;-68
2023/05/19 07:56:37;;;;;;;2.50;2.30;;;15.00;99.90;;;;;;5075940;28;20998;-68
2023/05/19 07:59:05;;;;;;;3.77;2.97;;;15.10;99.90;;;;;;5076491;28;20795;-68
2023/05/19 08:01:32;;;;;;;4.87;2.90;;;15.20;99.90;;;;;;5075746;28;20516;-68
2023/05/19 08:04:01;;;;;;;4.83;2.90;;;15.30;99.90;;;;;;5076763;28;20458;-67
2023/05/19 08:06:28;;;;;;;6.83;3.20;;;15.40;99.90;;;;;;5077949;28;20549;-68
2023/05/19 08:08:55;;;;;;;3.57;2.50;;;15.60;99.90;;;;;;5078819;28;20454;-68
2023/05/19 08:11:22;;;;;;;3.57;2.70;;;15.70;99.90;;;;;;5076120;28;20568;-68
2023/05/19 08:13:49;;;;;;;3.93;2.67;;;15.90;99.90;;;;;;5077036;28;20464;-67
2023/05/19 08:16:16;;;;;;;3.30;2.60;;;16.00;99.90;;;;;;5076607;28;20458;-68
2023/05/19 08:18:43;;;;;;;4.40;2.60;;;16.20;99.90;;;;;;5078455;28;20490;-68
2023/05/19 08:21:11;;;;;;;4.27;2.90;;;16.20;99.90;;;;;;5079956;28;20464;-68
2023/05/19 08:23:38;;;;;;;4.73;2.83;;;16.30;99.90;;;;;;5077191;28;20476;-68
2023/05/19 08:26:05;;;;;;;4.30;2.80;;;16.40;99.90;;;;;;5077738;28;20468;-69
2023/05/19 08:28:32;;;;;;;5.53;2.70;;;16.40;99.90;;;;;;5078697;28;20541;-68
2023/05/19 08:30:59;;;;;;;4.60;2.97;;;16.50;99.90;;;;;;5079839;28;20561;-68
2023/05/19 08:33:26;;;;;;;7.60;3.73;;;16.50;99.90;;;;;;5076370;28;20530;-68
2023/05/19 08:35:56;;;;;;;2.87;2.57;;;16.60;99.90;;;;;;5076030;28;20467;-68
2023/05/19 08:38:25;;;;;;;2.77;2.40;;;16.60;99.90;;;;;;5075523;28;20482;-68
2023/05/19 08:40:52;;;;;;;3.73;2.30;;;16.60;99.90;;;;;;5075275;28;20454;-67
2023/05/19 08:43:19;;;;;;;2.70;2.10;;;16.70;99.90;;;;;;5075901;28;20468;-67
2023/05/19 08:45:46;;;;;;;5.80;2.90;;;16.80;99.90;;;;;;5075242;28;20454;-68
2023/05/19 08:48:14;;;;;;;2.87;2.57;;;16.90;99.90;;;;;;5074575;28;20548;-68
2023/05/19 08:50:44;;;;;;;3.70;3.10;;;17.00;99.90;;;;;;5075457;28;20469;-68
2023/05/19 08:53:16;;;;;;;7.37;2.90;;;17.00;99.90;;;;;;5075196;28;20482;-68
2023/05/19 08:55:52;;;;;;;2.60;2.03;;;17.10;99.90;;;;;;5074953;28;20442;-68
2023/05/19 08:58:20;;;;;;;2.07;1.80;;;17.20;99.90;;;;;;5075060;28;20448;-67
2023/05/19 09:00:48;;;;;;;4.70;2.23;;;17.30;99.90;;;;;;5074742;28;20799;-68
2023/05/19 09:03:17;;;;;;;4.47;2.77;;;17.40;99.90;;;;;;5074954;28;20513;-67
2023/05/19 09:05:45;;;;;;;3.13;1.80;;;17.60;99.90;;;;;;5074271;28;20540;-67
2023/05/19 09:08:12;;;;;;;2.70;1.90;;;17.70;99.90;;;;;;5074875;28;20458;-68
2023/05/19 09:10:39;;;;;;;1.97;1.63;;;17.80;99.90;;;;;;5074560;28;20549;-68
2023/05/19 09:13:07;;;;;;;4.20;1.83;;;18.00;99.90;;;;;;5074434;28;20488;-68
2023/05/19 09:15:35;;;;;;;3.47;2.17;;;18.20;99.90;;;;;;5074713;28;20454;-68
2023/05/19 09:18:09;;;;;;;3.13;1.83;;;18.30;99.90;;;;;;5074570;28;20465;-68
2023/05/19 09:20:41;;;;;;;3.53;1.90;;;18.50;99.90;;;;;;5074231;28;20915;-68
2023/05/19 09:23:12;;;;;;;2.77;1.70;;;18.60;99.90;;;;;;5075017;28;20747;-68
2023/05/19 09:25:47;;;;;;;6.50;1.77;;;18.70;99.90;;;;;;5074755;28;20482;-67
2023/05/19 09:28:22;;;;;;;3.43;2.57;;;18.80;99.90;;;;;;5074297;28;20452;-66
2023/05/19 09:30:49;;;;;;;2.33;2.07;;;18.80;99.90;;;;;;5074338;28;20442;-67
2023/05/19 09:33:19;;;;;;;2.20;1.90;;;18.90;98.00;;;;;;5074430;28;20517;-67
2023/05/19 09:35:47;;;;;;;2.07;1.50;;;19.00;96.20;;;;;;5074105;28;20458;-68
2023/05/19 09:38:18;;;;;;;3.10;2.30;;;19.00;94.70;;;;;;5074236;28;20516;-67
2023/05/19 09:40:45;;;;;;;3.03;1.67;;;19.00;95.50;;;;;;5074425;28;20442;-67
2023/05/19 09:43:12;;;;;;;2.07;1.50;;;19.10;93.40;;;;;;5074256;28;20458;-68
2023/05/19 09:45:40;;;;;;;2.93;1.70;;;19.10;92.20;;;;;;5074204;28;20550;-68
2023/05/19 09:48:07;;;;;;;2.60;1.70;;;19.20;92.60;;;;;;5074389;28;20541;-68
2023/05/19 09:50:35;;;;;;;2.70;1.63;;;19.20;92.50;;;;;;5073877;28;20468;-67
2023/05/19 09:53:03;;;;;;;2.97;1.77;;;19.20;91.90;;;;;;5074435;28;20789;-67
2023/05/19 09:55:31;;;;;;;7.67;1.90;;;19.30;89.50;;;;;;5074027;28;20548;-68
2023/05/19 09:57:58;;;;;;;7.77;1.30;;;19.30;90.00;;;;;;5073937;28;20484;-66
2023/05/19 10:00:27;;;;;;;2.43;2.00;;;19.40;87.50;;;;;;5077234;28;20783;-69
2023/05/19 10:02:56;;;;;;;4.03;1.73;;;19.50;87.40;;;;;;5078312;28;20460;-67
2023/05/19 10:05:24;;;;;;;2.60;1.37;;;19.60;85.60;;;;;;5077972;28;20458;-67
2023/05/19 10:07:53;;;;;;;1.80;1.27;;;19.60;83.10;;;;;;5077662;28;20907;-67
2023/05/19 10:10:21;;;;;;;2.57;1.40;;;19.70;78.50;;;;;;5077975;28;20523;-68
2023/05/19 10:12:49;;;;;;;2.43;1.43;;;19.80;76.80;;;;;;5077802;28;20474;-69
2023/05/19 10:15:17;;;;;;;2.43;1.40;;;19.80;75.10;;;;;;5077759;28;20472;-67
2023/05/19 10:17:45;;;;;;;4.43;1.30;;;19.80;74.70;;;;;;5077902;28;20454;-67
2023/05/19 10:20:15;;;;;;;3.20;1.43;;;19.80;74.80;;;;;;5078029;28;20457;-67
2023/05/19 10:22:43;;;;;;;2.20;1.20;;;19.90;74.70;;;;;;5077966;28;20457;-68
2023/05/19 10:25:13;;;;;;;2.13;1.40;;;20.00;72.50;;;;;;5077824;28;20541;-68
2023/05/19 10:27:44;;;;;;;1.70;1.20;;;20.00;72.20;;;;;;5077681;28;20454;-68
2023/05/19 10:30:16;;;;;;;2.63;1.33;;;20.20;69.60;;;;;;5077449;28;20504;-68
2023/05/19 10:32:45;;;;;;;2.43;1.40;;;20.20;69.20;;;;;;5078037;28;20466;-68
2023/05/19 10:35:23;;;;;;;2.30;1.30;;;20.30;70.80;;;;;;5077662;28;20461;-68
2023/05/19 10:37:57;;;;;;;2.23;1.70;;;20.40;69.70;;;;;;5077419;28;20448;-67
2023/05/19 10:40:29;;;;;;;2.03;1.67;;;20.50;66.90;;;;;;5077394;28;20430;-67
2023/05/19 10:43:19;;;;;;;1.40;1.20;;;20.60;63.90;;;;;;5077066;28;20434;-68
2023/05/19 10:45:49;;;;;;;2.77;1.40;;;20.60;61.10;;;;;;5077235;28;20785;-68
2023/05/19 10:48:16;;;;;;;2.63;1.30;;;20.70;59.40;;;;;;5076839;28;20449;-66
2023/05/19 10:50:46;;;;;;;1.93;1.27;;;20.70;59.40;;;;;;5076677;28;20462;-67
2023/05/19 10:53:18;;;;;;;1.30;1.20;;;20.60;59.50;;;;;;5077734;28;20493;-68
2023/05/19 10:55:47;;;;;;;2.80;1.40;;;20.60;59.60;;;;;;5077107;28;20956;-67
2023/05/19 10:58:13;;;;;;;1.67;1.30;;;20.60;59.20;;;;;;5077099;28;20466;-67
2023/05/19 11:00:41;;;;;;;3.20;1.20;;;20.60;59.10;;;;;;5076710;28;20458;-68
2023/05/19 11:03:15;;;;;;;1.40;1.10;;;20.60;59.40;;;;;;5076940;28;20458;-67
2023/05/19 11:05:44;;;;;;;3.93;1.10;;;20.70;58.60;;;;;;5077111;28;20485;-67
2023/05/19 11:08:12;;;;;;;4.17;1.30;;;20.70;56.70;;;;;;5076600;28;20596;-67
2023/05/19 11:10:43;;;;;;;1.63;1.20;;;20.70;57.60;;;;;;5075872;28;20469;-67
2023/05/19 11:13:19;;;;;;;2.67;1.70;;;20.80;58.30;;;;;;5076817;28;20476;-67
2023/05/19 11:15:46;;;;;;;1.60;1.47;;;21.00;57.50;;;;;;5076850;28;20529;-68
2023/05/19 11:18:15;;;;;;;3.30;1.50;;;21.20;56.90;;;;;;5077010;28;20526;-67
2023/05/19 11:20:43;;;;;;;4.77;1.30;;;21.40;55.60;;;;;;5076535;28;20458;-68
2023/05/19 11:23:16;;;;;;;2.00;1.30;;;21.50;55.00;;;;;;5076616;28;20906;-68
2023/05/19 11:25:45;;;;;;;1.87;1.50;;;21.60;55.30;;;;;;5076503;28;20450;-67
2023/05/19 11:28:13;;;;;;;1.33;1.00;;;21.60;54.30;;;;;;5076266;28;20454;-67
2023/05/19 11:30:42;;;;;;;1.80;1.30;;;21.50;53.10;;;;;;5076160;28;20510;-68
2023/05/19 11:33:09;;;;;;;2.77;1.33;;;21.50;52.30;;;;;;5076425;28;20485;-68
2023/05/19 11:35:36;;;;;;;3.43;1.40;;;21.70;52.10;;;;;;5076594;28;20924;-68
2023/05/19 11:38:03;;;;;;;2.27;1.33;;;21.90;50.70;;;;;;5076082;28;20458;-67
2023/05/19 11:40:32;;;;;;;4.10;1.67;;;22.00;49.50;;;;;;5076505;28;20766;-68
2023/05/19 11:43:00;;;;;;;2.47;1.30;;;21.90;48.40;;;;;;5076405;28;21020;-67
2023/05/19 11:45:28;;;;;;;7.03;1.73;;;21.90;48.80;;;;;;5076245;28;20550;-67
2023/05/19 11:47:56;;;;;;;3.23;1.50;;;21.80;48.40;;;;;;5075857;28;20454;-68
2023/05/19 11:50:24;;;;;;;2.20;2.00;;;21.70;49.10;;;;;;5076483;28;20462;-68
2023/05/19 11:52:51;;;;;;;1.93;1.40;;;21.60;50.70;;;;;;5076444;28;20492;-68
2023/05/19 11:55:20;;;;;;;2.87;1.53;;;21.50;51.40;;;;;;5076400;28;20454;-68
2023/05/19 11:57:59;;;;;;;1.40;1.10;;;21.70;50.10;;;;;;5076319;28;20549;-68
2023/05/19 12:00:26;;;;;;;2.17;1.67;;;22.20;49.80;;;;;;5076318;28;20475;-68
2023/05/19 12:02:53;;;;;;;2.73;1.50;;;22.90;49.40;;;;;;5076636;28;20461;-68
2023/05/19 12:05:21;;;;;;;4.80;1.63;;;23.70;47.80;;;;;;5076332;28;20829;-68
2023/05/19 12:07:50;;;;;;;1.70;1.43;;;24.40;46.30;;;;;;5075974;28;20855;-68
2023/05/19 12:10:18;;;;;;;5.97;1.63;;;25.20;43.20;;;;;;5076207;28;20769;-68
2023/05/19 12:12:45;;;;;;;2.33;1.90;;;25.80;41.40;;;;;;5075428;28;20568;-68
2023/05/19 12:15:15;;;;;;;2.43;1.60;;;26.10;38.80;;;;;;5075850;28;20557;-68
2023/05/19 12:17:42;;;;;;;2.30;1.20;;;26.00;36.70;;;;;;5075334;28;20517;-67
2023/05/19 12:20:10;;;;;;;3.00;1.60;;;25.90;34.50;;;;;;5075515;28;20473;-68
2023/05/19 12:22:38;;;;;;;3.60;2.03;;;25.70;33.80;;;;;;5075531;28;20476;-68
2023/05/19 12:25:06;;;;;;;3.57;2.30;;;25.30;33.80;;;;;;5075696;28;20485;-68
2023/05/19 12:27:36;;;;;;;1.67;1.57;;;25.00;34.50;;;;;;5075792;28;20466;-67
2023/05/19 12:30:04;;;;;;;4.33;2.43;;;24.70;33.80;;;;;;5075415;28;20439;-68
2023/05/19 12:32:34;;;;;;;2.90;2.20;;;24.50;34.40;;;;;;5075472;28;20489;-68
2023/05/19 12:35:03;;;;;;;3.40;2.50;;;24.60;34.70;;;;;;5075635;28;20789;-68
2023/05/19 12:37:31;;;;;;;2.00;1.43;;;25.00;35.30;;;;;;5075615;28;20466;-68
2023/05/19 12:39:59;;;;;;;1.97;1.40;;;25.50;31.70;;;;;;5075935;28;20482;-68
2023/05/19 12:42:31;;;;;;;4.13;2.63;;;26.00;31.40;;;;;;5075564;28;20450;-68
2023/05/19 12:44:58;;;;;;;1.77;1.53;;;26.50;30.60;;;;;;5074897;28;20448;-68
2023/05/19 12:47:30;;;;;;;2.40;2.20;;;26.60;29.90;;;;;;5075076;28;20458;-68
2023/05/19 12:50:01;;;;;;;2.80;2.03;;;26.60;30.00;;;;;;5074663;28;20449;-68
2023/05/19 12:52:29;;;;;;;1.70;1.60;;;26.60;29.90;;;;;;5074750;28;20557;-68
2023/05/19 12:55:00;;;;;;;1.70;1.37;;;26.50;28.60;;;;;;5074797;28;20541;-68